Aeroporto :







RITROVATECI SU...

 
LOGIN :

Iscrizione | Disclaimer

   EN    FR    IT 

 









Sommario :    VFR   VFR Marginale   IFR   IFR Intensivo   IFR Molto Intensivo
Visibilità : 
Base nubi : 
>= 8 km
>= 3000ft
5 / 8 km
1000 / 3000 ft
1500m / 5 km
500 / 1000 ft
800 / 1500m
200 / 500 ft
< 800m
< 200 ft
Simboli :   Temporali  Nebbia  Neve Forte  Precipitazioni Forti  Vento > 20 kt






- Altitudine del aeroporto : 342 ft


KCON - Concord Municipal

ULTIMO METAR :
  • 120551Z AUTO 09004KT 10SM OVC006 M01/M02 A2988 RMK AO2 PRESFR SLP122 T10061017 10028 21006 58041

METARs OBSOLETI :
  • 120451Z AUTO 06008KT 6SM BR OVC008 00/M02 A2996 RMK AO2 PRESFR SLP148 T00001017 400610000
  • 120351Z AUTO 02006KT 10SM OVC008 01/M02 A2997 RMK AO2 SLP152 T00061017

TAF KCON
Valido dal 12 a 06 ore il 13 a 06 ore UTC


120528Z 1206/1306 03005KT 6SM BR OVC009
FM121400 VRB02KT 5SM -FZDZ OVC025
FM121700 31009G16KT P6SM -SN OVC045
FM122300 30012G25KT P6SM SKC



MetMap, La meteo Aeronautica in un colpo d'occhio ! - Copyright ORBIFLY Dicembre 2007 - Disclaimer

ORBIFLY MET'MAP TEAM :

Programmazione e sviluppo : Alexandra Zaïnal
Concezione e sviluppo : Baudouin d'Aumeries
Co-Programmazione e sviluppo : Marc-Olivier Méhu
Supporto tecnico e logistico : Manuel Goepfert
Aiuto per la traduzione : Arnaldo La Scala

Contatto : metmap@orbifly.com




FONTI E CREDITI :

   NOAA